Time;durP1;ratioP1;P1;durP2;ratioP2;P2;SDS_P1;SDS_P2;PMS_P1;PMS_P2;Temp;Humidity;BMP_temperature;BMP_pressure;BME280_temperature;BME280_humidity;BME280_pressure;Samples;Min_cycle;Max_cycle;Signal;HPM_P1;HPM_P2
2023/08/18 00:01:40;;;;;;;10.05;5.70;;;21.90;69.80;;;;;;4857377;29;20256;-55
2023/08/18 00:14:18;;;;;;;8.23;4.93;;;21.90;69.90;;;;;;4894696;29;20602;-55
2023/08/18 00:30:05;;;;;;;8.77;5.35;;;21.90;70.00;;;;;;4874459;29;20307;-59
2023/08/18 00:32:34;;;;;;;10.50;5.22;;;21.80;69.90;;;;;;4875531;29;20230;-57
2023/08/18 00:35:01;;;;;;;10.40;5.25;;;21.80;69.90;;;;;;4875581;29;20413;-56
2023/08/18 00:37:29;;;;;;;9.18;5.18;;;21.80;69.90;;;;;;4875633;29;20254;-59
2023/08/18 00:39:56;;;;;;;8.38;5.15;;;21.90;70.00;;;;;;4875736;29;20218;-59
2023/08/18 00:51:40;;;;;;;11.15;4.95;;;21.90;70.10;;;;;;4935314;29;20223;-58
2023/08/18 00:54:09;;;;;;;10.77;5.63;;;21.90;70.10;;;;;;4935545;29;20228;-56
2023/08/18 00:56:39;;;;;;;11.98;6.15;;;21.90;70.10;;;;;;4935523;29;20216;-59
2023/08/18 00:59:27;;;;;;;10.98;5.30;;;21.80;70.10;;;;;;4993331;28;20236;-59
2023/08/18 01:01:56;;;;;;;9.40;5.75;;;21.90;70.20;;;;;;5034872;28;20185;-58
2023/08/18 01:09:48;;;;;;;8.95;5.55;;;21.90;70.20;;;;;;5052098;28;20243;-59
2023/08/18 01:12:27;;;;;;;9.38;5.65;;;21.80;70.10;;;;;;5053776;28;20206;-58
2023/08/18 01:19:02;;;;;;;8.98;5.47;;;21.80;70.10;;;;;;5054274;28;20250;-59
2023/08/18 01:21:44;;;;;;;11.40;5.80;;;21.90;70.20;;;;;;5054246;28;20282;-55
2023/08/18 01:24:13;;;;;;;11.43;5.97;;;21.80;70.10;;;;;;5054198;28;20698;-57
2023/08/18 01:26:41;;;;;;;9.00;5.70;;;21.80;70.20;;;;;;5054217;28;20188;-57
2023/08/18 01:29:08;;;;;;;9.48;5.72;;;21.80;70.20;;;;;;5054053;28;20587;-57
2023/08/18 01:31:40;;;;;;;9.23;5.85;;;21.80;70.20;;;;;;5054106;28;20188;-58
2023/08/18 01:34:16;;;;;;;11.98;5.88;;;21.80;70.30;;;;;;5054256;28;20302;-59
2023/08/18 01:37:04;;;;;;;7.25;5.25;;;21.90;70.30;;;;;;5053975;28;20214;-56
2023/08/18 01:39:42;;;;;;;10.70;6.00;;;21.80;70.30;;;;;;5054238;28;20223;-59
2023/08/18 01:42:09;;;;;;;8.77;5.75;;;21.80;70.30;;;;;;5053924;28;20190;-58
2023/08/18 01:44:47;;;;;;;11.25;6.03;;;21.80;70.30;;;;;;5053666;28;20769;-60
2023/08/18 01:47:20;;;;;;;11.52;6.43;;;21.80;70.30;;;;;;5002824;28;20231;-58
2023/08/18 01:49:48;;;;;;;11.10;6.32;;;21.80;70.40;;;;;;5067264;28;20289;-57
2023/08/18 01:52:20;;;;;;;9.25;6.32;;;21.80;70.30;;;;;;5072956;28;20207;-59
2023/08/18 01:54:52;;;;;;;13.57;6.57;;;21.80;70.40;;;;;;5073040;28;20207;-53
2023/08/18 01:57:19;;;;;;;10.45;6.15;;;21.80;70.40;;;;;;5073508;28;20198;-56
2023/08/18 01:59:46;;;;;;;13.35;6.57;;;21.80;70.30;;;;;;5073334;28;20732;-56
2023/08/18 02:02:14;;;;;;;9.20;5.65;;;21.80;70.40;;;;;;5073123;28;20191;-58
2023/08/18 02:04:42;;;;;;;11.35;6.28;;;21.80;70.40;;;;;;5073586;28;20190;-56
2023/08/18 02:07:09;;;;;;;11.77;6.63;;;21.80;70.40;;;;;;5073393;28;20187;-55
2023/08/18 02:20:18;;;;;;;13.18;6.25;;;21.80;70.50;;;;;;4895984;29;20226;-56
2023/08/18 02:22:47;;;;;;;10.60;6.65;;;21.80;70.60;;;;;;4896377;29;20222;-58
2023/08/18 02:25:30;;;;;;;9.27;6.22;;;21.80;70.60;;;;;;4895852;29;20208;-57
2023/08/18 02:27:58;;;;;;;11.38;7.00;;;21.80;70.70;;;;;;4895742;29;20791;-55
2023/08/18 02:30:25;;;;;;;12.88;7.28;;;21.80;70.60;;;;;;4913275;29;20216;-57
2023/08/18 02:39:29;;;;;;;12.32;7.25;;;21.80;70.70;;;;;;4858472;29;20261;-59
2023/08/18 02:47:21;;;;;;;8.40;6.00;;;21.80;70.70;;;;;;5008459;28;20204;-56
2023/08/18 02:49:50;;;;;;;11.95;6.80;;;21.80;70.70;;;;;;5010542;28;20232;-54
2023/08/18 02:55:28;;;;;;;10.48;6.45;;;21.80;70.70;;;;;;5048329;28;20243;-57
2023/08/18 02:57:56;;;;;;;8.45;6.63;;;21.80;70.70;;;;;;5071985;28;20226;-59
2023/08/18 03:00:26;;;;;;;10.52;6.68;;;21.80;70.70;;;;;;5073239;28;20252;-57
2023/08/18 03:03:01;;;;;;;11.07;6.95;;;21.80;70.70;;;;;;5072311;28;20222;-56
2023/08/18 03:05:28;;;;;;;10.90;6.60;;;21.80;70.70;;;;;;5071771;28;20254;-58
2023/08/18 03:07:56;;;;;;;9.23;6.45;;;21.80;70.80;;;;;;5071888;28;20227;-57
2023/08/18 03:10:33;;;;;;;;;;;;;;;;;;;;;
2023/08/18 03:13:03;;;;;;;13.68;7.13;;;21.80;70.80;;;;;;5020410;28;20228;-58
2023/08/18 03:15:31;;;;;;;10.55;6.70;;;21.80;70.80;;;;;;5072115;28;20191;-58
2023/08/18 03:18:21;;;;;;;10.68;7.03;;;21.80;70.80;;;;;;5071972;28;20572;-49
2023/08/18 03:27:14;;;;;;;12.88;7.25;;;21.80;70.90;;;;;;5052014;28;20186;-60
2023/08/18 03:29:43;;;;;;;9.50;6.80;;;21.70;70.80;;;;;;5052290;28;20220;-61
2023/08/18 03:32:10;;;;;;;11.05;6.75;;;21.80;71.70;;;;;;5052395;28;20234;-60
2023/08/18 03:34:37;;;;;;;12.25;6.75;;;21.80;70.80;;;;;;5052416;28;20309;-61
2023/08/18 03:37:05;;;;;;;10.93;6.90;;;21.80;70.90;;;;;;5052012;28;20266;-60
2023/08/18 03:39:35;;;;;;;13.18;6.93;;;21.80;70.90;;;;;;5052501;28;20227;-58
2023/08/18 03:42:08;;;;;;;11.45;6.70;;;21.80;70.90;;;;;;5052155;28;20187;-58
2023/08/18 03:44:35;;;;;;;13.25;7.13;;;21.80;70.90;;;;;;5051963;28;20769;-60
2023/08/18 03:47:04;;;;;;;10.85;7.13;;;21.80;70.90;;;;;;5051775;28;20657;-59
2023/08/18 03:49:37;;;;;;;9.35;6.80;;;21.80;70.90;;;;;;5062737;28;20321;-53
2023/08/18 03:52:05;;;;;;;10.10;6.78;;;21.70;70.80;;;;;;5071966;28;20194;-58
2023/08/18 03:57:22;;;;;;;11.93;7.30;;;21.80;70.90;;;;;;5071652;28;20227;-60
2023/08/18 03:59:49;;;;;;;12.27;6.82;;;21.80;71.00;;;;;;5072165;28;20329;-58
2023/08/18 04:02:18;;;;;;;10.85;6.97;;;21.80;71.00;;;;;;5071868;28;20191;-56
2023/08/18 04:04:45;;;;;;;13.52;7.60;;;21.80;71.00;;;;;;5071902;28;20301;-59
2023/08/18 04:07:24;;;;;;;;;;;;;;;;;;;;;
2023/08/18 04:10:16;;;;;;;8.93;7.22;;;21.70;70.90;;;;;;5070361;28;20606;-59
2023/08/18 04:12:43;;;;;;;10.98;7.60;;;21.80;71.20;;;;;;5068084;28;20278;-61
2023/08/18 04:24:41;;;;;;;10.73;7.07;;;21.80;71.10;;;;;;4926232;28;20225;-60
2023/08/18 04:29:51;;;;;;;10.80;7.43;;;21.70;71.00;;;;;;4973014;28;20222;-57
2023/08/18 04:32:18;;;;;;;10.50;7.43;;;21.70;71.00;;;;;;4973819;28;20187;-58
2023/08/18 04:34:57;;;;;;;10.68;7.75;;;21.70;71.00;;;;;;4974122;28;20226;-59
2023/08/18 04:37:26;;;;;;;12.23;8.13;;;21.80;71.10;;;;;;4917802;29;20200;-57
2023/08/18 04:40:14;;;;;;;11.30;7.55;;;21.80;71.10;;;;;;4954781;29;20239;-59
2023/08/18 04:42:41;;;;;;;12.38;7.45;;;21.70;71.10;;;;;;4951706;28;20231;-59
2023/08/18 04:45:10;;;;;;;10.85;7.30;;;21.70;71.10;;;;;;4954520;29;20196;-58
2023/08/18 04:47:38;;;;;;;9.77;7.20;;;21.70;71.10;;;;;;4954404;28;20196;-58
2023/08/18 04:50:06;;;;;;;9.10;7.03;;;21.70;71.10;;;;;;4954536;29;20694;-55
2023/08/18 04:55:46;;;;;;;9.52;6.93;;;21.70;71.90;;;;;;5032583;28;20376;-59
2023/08/18 04:58:17;;;;;;;10.80;6.80;;;21.70;71.20;;;;;;5079514;28;20215;-58
2023/08/18 05:00:55;;;;;;;10.82;7.25;;;21.70;71.10;;;;;;5074909;28;20197;-60
2023/08/18 05:03:23;;;;;;;9.82;7.38;;;21.80;72.10;;;;;;5074674;28;20223;-55
2023/08/18 05:08:54;;;;;;;10.35;7.05;;;21.70;71.20;;;;;;5046462;28;20227;-57
2023/08/18 05:11:21;;;;;;;9.38;7.35;;;21.70;71.30;;;;;;5074709;28;20193;-55
2023/08/18 05:13:48;;;;;;;9.07;7.10;;;21.70;71.30;;;;;;5074494;28;20210;-58
2023/08/18 05:16:30;;;;;;;10.93;7.43;;;21.70;71.30;;;;;;5074587;28;20195;-61
2023/08/18 05:18:59;;;;;;;10.98;7.13;;;21.70;71.30;;;;;;5094785;28;20238;-59
2023/08/18 05:21:28;;;;;;;9.70;7.00;;;21.70;71.30;;;;;;5094451;28;20190;-60
2023/08/18 05:23:56;;;;;;;9.70;6.75;;;21.70;71.30;;;;;;5074770;28;20218;-60
2023/08/18 05:29:17;;;;;;;8.98;7.30;;;21.80;71.50;;;;;;5038942;28;20226;-59
2023/08/18 05:31:48;;;;;;;9.75;6.78;;;21.70;71.40;;;;;;5073942;28;20287;-60
2023/08/18 05:34:16;;;;;;;11.00;7.20;;;21.70;71.40;;;;;;5074350;28;20215;-60
2023/08/18 05:36:44;;;;;;;9.73;7.05;;;21.70;71.40;;;;;;5074376;28;20220;-56
2023/08/18 05:39:13;;;;;;;9.23;6.68;;;21.70;71.50;;;;;;5074134;28;20235;-59
2023/08/18 05:41:40;;;;;;;9.02;6.40;;;21.80;71.60;;;;;;5074088;28;20198;-59
2023/08/18 05:44:08;;;;;;;8.98;6.57;;;21.70;71.40;;;;;;5054105;28;20224;-59
2023/08/18 05:46:36;;;;;;;10.25;7.00;;;21.70;72.20;;;;;;5053988;28;20192;-56
2023/08/18 05:49:03;;;;;;;7.38;6.00;;;21.70;71.50;;;;;;5072912;28;20276;-59
2023/08/18 05:51:31;;;;;;;8.48;6.30;;;21.70;71.50;;;;;;5074245;28;20195;-60
2023/08/18 05:54:14;;;;;;;7.93;6.55;;;21.70;71.50;;;;;;5073736;28;20219;-58
2023/08/18 05:56:44;;;;;;;9.73;6.47;;;21.70;71.50;;;;;;5025017;28;20194;-58
2023/08/18 05:59:11;;;;;;;9.95;6.43;;;21.70;71.50;;;;;;5073644;28;20313;-60
2023/08/18 06:07:23;;;;;;;7.25;6.07;;;21.70;71.50;;;;;;5009238;28;20190;-55
2023/08/18 06:09:50;;;;;;;7.82;6.18;;;21.70;71.50;;;;;;5073399;28;20603;-59
2023/08/18 06:15:54;;;;;;;9.95;6.60;;;21.70;71.60;;;;;;4987868;28;20206;-60
2023/08/18 06:18:28;;;;;;;7.80;6.57;;;21.70;71.60;;;;;;4991446;28;20253;-55
2023/08/18 06:20:55;;;;;;;9.05;6.30;;;21.70;71.60;;;;;;5021586;28;20290;-57
2023/08/18 06:23:36;;;;;;;7.97;6.60;;;21.70;71.60;;;;;;5065024;28;20222;-58
2023/08/18 06:26:35;;;;;;;8.77;7.00;;;21.70;71.60;;;;;;5021597;28;20209;-59
2023/08/18 06:32:05;;;;;;;8.75;6.40;;;21.70;71.70;;;;;;5009393;28;20231;-60
2023/08/18 06:34:33;;;;;;;7.93;5.80;;;21.70;71.70;;;;;;5073126;28;20211;-58
2023/08/18 06:37:00;;;;;;;9.32;6.25;;;21.70;71.70;;;;;;5073197;28;20191;-56
2023/08/18 06:39:30;;;;;;;7.07;6.05;;;21.70;71.70;;;;;;5072655;28;20326;-59
2023/08/18 06:42:19;;;;;;;8.40;6.18;;;21.80;71.80;;;;;;5072600;28;20199;-60
2023/08/18 06:47:35;;;;;;;7.43;6.38;;;21.70;71.70;;;;;;5036159;28;20287;-57
2023/08/18 06:52:57;;;;;;;8.70;6.38;;;21.70;71.70;;;;;;5071959;28;20203;-60
2023/08/18 06:58:43;;;;;;;8.13;5.75;;;21.70;71.70;;;;;;4982080;28;20296;-60
2023/08/18 07:01:16;;;;;;;9.75;6.43;;;21.80;71.90;;;;;;5067275;28;20190;-60
2023/08/18 07:03:47;;;;;;;13.90;9.95;;;21.80;72.00;;;;;;5049602;28;20228;-59
2023/08/18 07:06:18;;;;;;;14.68;9.57;;;21.80;71.90;;;;;;5063935;28;20191;-60
2023/08/18 07:08:48;;;;;;;9.60;8.60;;;21.80;71.90;;;;;;5064817;28;20226;-60
2023/08/18 07:11:56;;;;;;;13.75;10.45;;;21.90;72.10;;;;;;5068130;28;20260;-60
2023/08/18 07:14:24;;;;;;;14.23;11.80;;;21.90;72.10;;;;;;5066553;28;20276;-59
2023/08/18 07:17:02;;;;;;;17.20;12.43;;;21.90;72.20;;;;;;5066982;28;20210;-59
2023/08/18 07:19:33;;;;;;;13.98;12.10;;;22.00;72.30;;;;;;5025686;28;20314;-59
2023/08/18 07:22:01;;;;;;;16.08;10.82;;;22.00;72.40;;;;;;5067581;28;20704;-59
2023/08/18 07:24:28;;;;;;;14.98;11.18;;;22.00;72.30;;;;;;5065812;28;20231;-64
2023/08/18 07:26:55;;;;;;;13.45;10.43;;;22.00;72.20;;;;;;5068515;28;20197;-61
2023/08/18 07:29:23;;;;;;;15.30;10.50;;;22.10;72.30;;;;;;5067520;28;20325;-59
2023/08/18 07:38:25;;;;;;;10.75;9.30;;;22.20;72.10;;;;;;4860147;29;20216;-59
2023/08/18 08:22:43;;;;;;;;;;;;;;;;;;;;;
2023/08/18 08:32:51;;;;;;;8.10;6.18;;;23.00;71.90;;;;;;5050767;28;20240;-64
2023/08/18 08:35:33;;;;;;;9.30;6.28;;;23.00;71.90;;;;;;5029966;28;20215;-62
2023/08/18 08:42:03;;;;;;;13.57;6.20;;;23.10;72.00;;;;;;4987935;28;20206;-62
2023/08/18 08:44:32;;;;;;;9.10;5.72;;;23.20;72.10;;;;;;4991347;28;20312;-62
2023/08/18 08:47:15;;;;;;;12.57;5.90;;;23.20;71.90;;;;;;4987651;28;20201;-59
2023/08/18 08:49:44;;;;;;;10.43;6.55;;;23.30;72.00;;;;;;5008364;28;20235;-62
2023/08/18 08:52:39;;;;;;;10.23;5.95;;;23.30;72.00;;;;;;5010464;28;20244;-62
2023/08/18 08:55:42;;;;;;;11.10;6.45;;;23.30;72.10;;;;;;4992061;28;20228;-62
2023/08/18 08:58:11;;;;;;;10.55;6.07;;;23.30;72.10;;;;;;5028710;28;20207;-63
2023/08/18 09:00:42;;;;;;;8.02;5.45;;;23.30;72.00;;;;;;5035161;28;20780;-62
2023/08/18 09:03:10;;;;;;;10.30;6.85;;;23.30;72.10;;;;;;5025663;28;20228;-59
2023/08/18 09:05:37;;;;;;;10.48;5.97;;;23.30;72.10;;;;;;5047208;28;20192;-60
2023/08/18 09:08:15;;;;;;;9.65;6.38;;;23.30;72.20;;;;;;5043926;28;20200;-62
2023/08/18 09:13:39;;;;;;;9.93;6.03;;;23.30;72.30;;;;;;5029149;28;20221;-64
2023/08/18 09:19:12;;;;;;;11.25;5.90;;;23.30;72.30;;;;;;5009016;28;20251;-62
2023/08/18 09:21:39;;;;;;;10.77;5.70;;;23.30;72.40;;;;;;5008260;28;20225;-63
2023/08/18 09:24:07;;;;;;;7.70;5.25;;;23.30;72.40;;;;;;5031281;28;20232;-63
2023/08/18 09:26:35;;;;;;;8.75;5.93;;;23.30;72.40;;;;;;5031050;28;20195;-63
2023/08/18 09:39:01;;;;;;;8.82;5.85;;;23.40;72.50;;;;;;4927850;29;20386;-63
2023/08/18 09:41:38;;;;;;;9.05;5.82;;;23.30;72.30;;;;;;4928989;29;20355;-63
2023/08/18 09:44:06;;;;;;;11.00;6.03;;;23.40;72.40;;;;;;4930037;29;20405;-63
2023/08/18 09:46:46;;;;;;;;;;;;;;;;;;;;;
2023/08/18 09:52:33;;;;;;;12.00;6.38;;;23.40;72.30;;;;;;4909862;29;20243;-61
2023/08/18 09:55:18;;;;;;;19.05;6.25;;;23.40;72.20;;;;;;4908659;29;20821;-63
2023/08/18 09:58:08;;;;;;;;;;;;;;;;;;;;;
2023/08/18 10:04:04;;;;;;;9.45;5.35;;;23.40;72.00;;;;;;4875601;29;20880;-62
2023/08/18 10:06:41;;;;;;;9.35;6.05;;;23.40;72.00;;;;;;4891644;29;20210;-62
2023/08/18 10:09:33;;;;;;;;;;;;;;;;;;;;;
2023/08/18 10:15:40;;;;;;;8.13;5.63;;;23.50;71.90;;;;;;4923521;28;20213;-62
2023/08/18 10:18:28;;;;;;;9.00;6.28;;;23.50;71.90;;;;;;4967642;28;20203;-62
2023/08/18 10:20:57;;;;;;;8.82;5.18;;;23.50;71.90;;;;;;4943232;28;20776;-61
2023/08/18 10:23:30;;;;;;;9.32;6.20;;;23.50;71.90;;;;;;4947961;29;20212;-60
2023/08/18 10:25:59;;;;;;;7.43;5.72;;;23.60;71.90;;;;;;4967074;28;20202;-62
2023/08/18 10:28:45;;;;;;;13.10;6.28;;;23.50;71.60;;;;;;4963589;28;20305;-64
2023/08/18 10:31:16;;;;;;;11.38;5.13;;;23.60;71.50;;;;;;4947795;28;20200;-62
2023/08/18 10:33:50;;;;;;;8.25;5.82;;;23.50;71.40;;;;;;4979187;28;20231;-62
2023/08/18 10:36:24;;;;;;;9.07;5.97;;;23.60;71.50;;;;;;5048866;28;20277;-62
2023/08/18 10:39:32;;;;;;;11.20;6.20;;;23.60;71.50;;;;;;5038912;28;20607;-62
2023/08/18 10:42:19;;;;;;;9.70;5.70;;;23.60;71.50;;;;;;5039663;28;20672;-64
2023/08/18 10:45:03;;;;;;;8.02;5.80;;;23.60;71.40;;;;;;5048167;28;20226;-62
2023/08/18 10:47:32;;;;;;;9.63;5.90;;;23.60;71.40;;;;;;5067721;28;20202;-63
2023/08/18 10:50:20;;;;;;;6.65;5.70;;;23.60;71.40;;;;;;5065085;28;20239;-64
2023/08/18 10:52:54;;;;;;;8.70;6.00;;;23.60;71.30;;;;;;5048838;28;20204;-63
2023/08/18 10:55:31;;;;;;;7.50;5.47;;;23.70;71.40;;;;;;5061766;28;20315;-61
2023/08/18 10:57:59;;;;;;;8.90;5.95;;;23.60;71.30;;;;;;5066841;28;20197;-61
2023/08/18 11:00:33;;;;;;;10.57;5.63;;;23.60;71.20;;;;;;5060906;28;20242;-63
2023/08/18 11:03:00;;;;;;;9.55;5.93;;;23.60;71.20;;;;;;5047984;28;20202;-62
2023/08/18 11:05:47;;;;;;;9.02;6.15;;;23.60;71.20;;;;;;5062022;28;20219;-65
2023/08/18 11:08:14;;;;;;;8.05;5.78;;;23.70;71.30;;;;;;5066607;28;20206;-63
2023/08/18 11:10:49;;;;;;;9.93;5.45;;;23.70;71.20;;;;;;5067224;28;20218;-62
2023/08/18 11:13:28;;;;;;;13.38;5.72;;;23.70;71.30;;;;;;5068027;28;20732;-64
2023/08/18 11:16:31;;;;;;;;;;;;;;;;;;;;;
2023/08/18 11:29:16;;;;;;;8.68;5.60;;;23.70;71.10;;;;;;4986010;28;20212;-62
2023/08/18 11:32:23;;;;;;;8.93;6.00;;;23.70;71.10;;;;;;4985731;28;20212;-63
2023/08/18 11:34:50;;;;;;;9.65;6.00;;;23.70;71.00;;;;;;4835031;29;20236;-62
2023/08/18 11:37:22;;;;;;;10.10;5.72;;;23.80;71.10;;;;;;4909090;29;20213;-63
2023/08/18 11:53:43;;;;;;;9.23;5.47;;;23.80;71.00;;;;;;4798173;29;20216;-62
2023/08/18 11:56:11;;;;;;;8.15;5.68;;;23.80;71.00;;;;;;4782927;29;20221;-63
2023/08/18 11:58:45;;;;;;;8.90;5.60;;;23.80;70.90;;;;;;4798484;29;20765;-62
2023/08/18 12:01:23;;;;;;;11.63;5.88;;;23.80;71.00;;;;;;4797361;29;20229;-62
2023/08/18 12:04:23;;;;;;;8.35;6.10;;;23.90;71.10;;;;;;4790913;29;20269;-59
2023/08/18 12:06:53;;;;;;;8.02;5.85;;;23.90;71.00;;;;;;4771274;29;20224;-59
2023/08/18 12:15:48;;;;;;;10.98;6.18;;;23.90;70.80;;;;;;4723373;30;20243;-63
2023/08/18 12:21:00;;;;;;;7.53;5.65;;;23.90;70.90;;;;;;4842359;29;20833;-62
2023/08/18 12:23:28;;;;;;;9.00;5.93;;;23.90;70.90;;;;;;4835977;29;20200;-63
2023/08/18 12:26:19;;;;;;;9.35;5.90;;;23.90;70.90;;;;;;4849010;29;20231;-60
2023/08/18 12:28:51;;;;;;;10.93;5.97;;;24.00;71.10;;;;;;4873286;29;20217;-63
2023/08/18 12:38:30;;;;;;;8.15;5.93;;;24.00;71.10;;;;;;4909232;29;20212;-62
2023/08/18 12:40:58;;;;;;;12.45;5.93;;;24.00;71.00;;;;;;4920708;29;20232;-63
2023/08/18 12:43:28;;;;;;;10.95;6.40;;;24.00;71.00;;;;;;4930216;29;20334;-63
2023/08/18 12:52:51;;;;;;;8.85;6.70;;;24.00;71.10;;;;;;4976716;28;20356;-61
2023/08/18 12:55:40;;;;;;;10.63;6.55;;;24.00;71.10;;;;;;4990249;28;20225;-63
2023/08/18 12:58:45;;;;;;;9.73;6.70;;;24.00;71.90;;;;;;4978896;28;20202;-62
2023/08/18 13:24:54;;;;;;;10.52;7.18;;;24.00;71.10;;;;;;4972215;28;20358;-61
2023/08/18 13:30:43;;;;;;;9.52;7.30;;;24.10;71.00;;;;;;4978943;28;20294;-59
2023/08/18 13:43:16;;;;;;;9.20;6.97;;;24.10;71.10;;;;;;4871097;29;20901;-61
2023/08/18 13:52:37;;;;;;;;;;;;;;;;;;;;;
2023/08/18 14:21:33;;;;;;;11.85;7.82;;;24.30;72.00;;;;;;4926609;28;20768;-58
2023/08/18 14:33:53;;;;;;;10.65;7.55;;;24.30;72.10;;;;;;4763579;29;20237;-63
2023/08/18 14:36:22;;;;;;;12.00;7.22;;;24.30;73.00;;;;;;4866082;29;20207;-63
2023/08/18 14:39:29;;;;;;;11.13;7.90;;;24.30;72.20;;;;;;4861046;29;20322;-62
2023/08/18 14:42:07;;;;;;;11.02;8.30;;;24.40;72.40;;;;;;4868937;29;20320;-63
2023/08/18 14:54:03;;;;;;;9.43;7.82;;;24.40;72.40;;;;;;4924857;29;20235;-61
2023/08/18 15:31:02;;;;;;;9.98;7.82;;;24.40;72.70;;;;;;4772826;29;20409;-63
2023/08/18 15:40:32;;;;;;;8.77;7.22;;;24.40;73.00;;;;;;4843589;29;20214;-63
2023/08/18 15:53:22;;;;;;;;;;;;;;;;;;;;;
2023/08/18 15:59:57;;;;;;;9.27;7.70;;;24.40;73.30;;;;;;4882721;29;20314;-63
2023/08/18 16:02:26;;;;;;;10.50;7.97;;;24.40;73.30;;;;;;4866122;29;20226;-60
2023/08/18 16:04:54;;;;;;;13.07;7.85;;;24.40;73.40;;;;;;4908829;29;20225;-59
2023/08/18 16:16:40;;;;;;;11.88;8.05;;;24.30;73.70;;;;;;4861102;29;20214;-63
2023/08/18 16:32:00;;;;;;;11.82;7.00;;;24.00;74.10;;;;;;4805916;29;20197;-61
2023/08/18 16:38:15;;;;;;;14.13;7.50;;;24.00;74.30;;;;;;4860590;29;20227;-59
2023/08/18 16:40:42;;;;;;;13.55;7.40;;;23.90;74.30;;;;;;4860459;29;20217;-63
2023/08/18 16:43:25;;;;;;;;;;;;;;;;;;;;;
2023/08/18 17:02:48;;;;;;;9.57;7.25;;;23.70;74.80;;;;;;4884375;28;20355;-60
2023/08/18 17:15:50;;;;;;;13.23;7.45;;;23.60;75.10;;;;;;4858702;29;20253;-64
2023/08/18 17:18:23;;;;;;;8.75;6.88;;;23.70;75.20;;;;;;4877686;29;20227;-61
2023/08/18 17:20:51;;;;;;;12.38;6.88;;;23.60;75.20;;;;;;4878353;29;20202;-63
2023/08/18 17:23:21;;;;;;;12.10;7.18;;;23.60;75.30;;;;;;4878374;29;20234;-60
2023/08/18 17:25:49;;;;;;;10.23;6.68;;;23.60;75.30;;;;;;4877297;29;20195;-62
2023/08/18 17:34:32;;;;;;;7.88;6.60;;;23.60;75.30;;;;;;4878635;29;20241;-57
2023/08/18 17:37:01;;;;;;;11.98;6.88;;;23.60;75.30;;;;;;4912733;29;20212;-60
2023/08/18 17:39:30;;;;;;;7.63;6.68;;;23.60;75.30;;;;;;4934439;29;20228;-61
2023/08/18 17:42:46;;;;;;;10.52;6.78;;;23.60;75.30;;;;;;4934464;29;20243;-60
2023/08/18 17:45:14;;;;;;;6.85;6.18;;;23.60;75.30;;;;;;4934284;29;20221;-62
2023/08/18 17:47:42;;;;;;;10.15;6.57;;;23.60;75.30;;;;;;4941015;28;20283;-61
2023/08/18 17:50:56;;;;;;;8.43;6.40;;;23.60;75.30;;;;;;5012008;28;20232;-61
2023/08/18 18:00:43;;;;;;;6.93;6.18;;;23.60;75.30;;;;;;4932106;29;20219;-63
2023/08/18 18:03:30;;;;;;;9.07;6.63;;;23.50;75.30;;;;;;4933932;29;20232;-63
2023/08/18 18:06:25;;;;;;;;;;;;;;;;;;;;;
2023/08/18 18:22:31;;;;;;;8.77;6.15;;;23.50;75.40;;;;;;4785816;30;20260;-59
2023/08/18 19:03:30;;;;;;;;;;;;;;;;;;;;;
2023/08/18 19:06:25;;;;;;;7.20;5.63;;;23.30;75.80;;;;;;4951891;29;20686;-61
2023/08/18 19:22:43;;;;;;;7.60;6.32;;;23.30;76.00;;;;;;4952049;29;20521;-61
2023/08/18 19:25:22;;;;;;;9.15;5.90;;;23.30;76.00;;;;;;4951945;29;20223;-58
2023/08/18 19:27:49;;;;;;;6.97;6.28;;;23.30;75.90;;;;;;4952096;29;20200;-61
2023/08/18 19:37:21;;;;;;;6.72;5.70;;;23.20;76.00;;;;;;4781555;29;20265;-60
2023/08/18 19:39:50;;;;;;;7.38;5.55;;;23.30;76.10;;;;;;4838168;29;20243;-56
2023/08/18 19:42:20;;;;;;;10.65;5.75;;;23.30;76.00;;;;;;4913415;29;20228;-59
2023/08/18 19:44:56;;;;;;;7.60;5.93;;;23.30;76.10;;;;;;4913648;29;20354;-62
2023/08/18 19:47:24;;;;;;;7.10;6.10;;;23.30;76.10;;;;;;4914043;29;20296;-57
2023/08/18 19:49:51;;;;;;;6.85;5.70;;;23.20;76.00;;;;;;4917582;29;20333;-62
2023/08/18 19:52:18;;;;;;;8.07;5.55;;;23.20;76.00;;;;;;4917208;29;20216;-58
2023/08/18 19:57:49;;;;;;;7.88;5.90;;;23.20;76.00;;;;;;4886111;29;20232;-58
2023/08/18 20:00:16;;;;;;;6.18;5.50;;;23.20;76.00;;;;;;4936537;29;20570;-57
2023/08/18 20:02:45;;;;;;;7.68;5.43;;;23.20;76.00;;;;;;4936239;29;20239;-63
2023/08/18 20:05:13;;;;;;;8.13;5.80;;;23.20;75.90;;;;;;4936473;29;20239;-59
2023/08/18 20:07:41;;;;;;;5.68;5.15;;;23.30;76.00;;;;;;4936169;29;20200;-63
2023/08/18 20:10:09;;;;;;;6.70;5.38;;;23.20;75.90;;;;;;4969726;28;20217;-64
2023/08/18 20:12:36;;;;;;;6.05;5.45;;;23.20;75.90;;;;;;5013572;28;20309;-65
2023/08/18 20:15:05;;;;;;;7.65;5.15;;;23.20;75.90;;;;;;5013783;28;20302;-64
2023/08/18 20:17:32;;;;;;;5.63;4.97;;;23.20;75.90;;;;;;5013702;28;20197;-62
2023/08/18 20:20:00;;;;;;;6.20;5.03;;;23.20;75.90;;;;;;5013714;28;20272;-61
2023/08/18 20:22:27;;;;;;;5.65;5.03;;;23.20;75.90;;;;;;5013414;28;20221;-63
2023/08/18 20:24:54;;;;;;;8.75;5.65;;;23.20;75.90;;;;;;5013524;28;20711;-54
2023/08/18 20:27:21;;;;;;;9.70;5.38;;;23.20;75.90;;;;;;5013356;28;20199;-58
2023/08/18 20:29:48;;;;;;;6.25;5.47;;;23.20;75.90;;;;;;5013494;28;20312;-57
2023/08/18 20:32:16;;;;;;;6.78;5.18;;;23.20;75.90;;;;;;5013234;28;20201;-56
2023/08/18 20:34:43;;;;;;;6.05;4.97;;;23.20;75.90;;;;;;5013286;28;20612;-57
2023/08/18 20:37:10;;;;;;;6.47;5.72;;;23.20;75.90;;;;;;5013156;28;20280;-57
2023/08/18 20:39:37;;;;;;;5.45;4.90;;;23.20;75.90;;;;;;5013229;28;20221;-59
2023/08/18 20:42:05;;;;;;;6.38;5.32;;;23.10;75.70;;;;;;5012981;28;20213;-57
2023/08/18 20:44:32;;;;;;;7.63;5.32;;;23.10;75.70;;;;;;5013076;28;20348;-59
2023/08/18 20:46:59;;;;;;;6.03;5.25;;;23.20;75.80;;;;;;5012991;28;20196;-56
2023/08/18 20:49:27;;;;;;;7.18;5.00;;;23.20;76.60;;;;;;5012947;28;20217;-58
2023/08/18 20:51:54;;;;;;;5.50;4.82;;;23.20;75.90;;;;;;5012894;28;20572;-55
2023/08/18 20:54:21;;;;;;;5.88;5.00;;;23.10;75.70;;;;;;5012842;28;20328;-58
2023/08/18 20:56:47;;;;;;;5.25;4.57;;;23.10;75.70;;;;;;5002714;28;20368;-57
2023/08/18 20:59:16;;;;;;;5.00;4.53;;;23.10;75.70;;;;;;4993243;28;20725;-56
2023/08/18 21:01:48;;;;;;;5.53;4.47;;;23.10;75.70;;;;;;4993116;28;20286;-54
2023/08/18 21:04:15;;;;;;;5.35;4.75;;;23.10;75.60;;;;;;4993024;28;20767;-58
2023/08/18 21:06:44;;;;;;;5.60;4.97;;;23.10;75.50;;;;;;4991283;28;20672;-58
2023/08/18 21:09:11;;;;;;;6.63;4.47;;;23.10;75.50;;;;;;4993060;28;20656;-58
2023/08/18 21:11:38;;;;;;;5.30;4.75;;;23.10;75.40;;;;;;4992943;28;20691;-59
2023/08/18 21:14:05;;;;;;;5.30;4.55;;;23.10;75.40;;;;;;4992845;28;20222;-57
2023/08/18 21:16:32;;;;;;;8.15;5.28;;;23.10;75.30;;;;;;4993606;28;20191;-59
2023/08/18 21:18:59;;;;;;;8.60;5.55;;;23.10;75.20;;;;;;4992810;28;20222;-54
2023/08/18 21:21:27;;;;;;;9.57;4.57;;;23.10;75.10;;;;;;4992789;28;20198;-56
2023/08/18 21:23:56;;;;;;;6.50;4.22;;;23.10;75.10;;;;;;4992573;28;20699;-53
2023/08/18 21:26:28;;;;;;;4.75;4.10;;;23.10;75.00;;;;;;4992657;28;20232;-59
2023/08/18 21:28:56;;;;;;;5.22;4.32;;;23.10;75.00;;;;;;4992623;28;20242;-55
2023/08/18 21:31:24;;;;;;;6.30;4.28;;;23.10;74.90;;;;;;4992596;28;20370;-58
2023/08/18 21:33:51;;;;;;;6.50;4.80;;;23.10;74.80;;;;;;4992548;28;20214;-58
2023/08/18 21:36:21;;;;;;;5.00;4.50;;;23.10;74.90;;;;;;4992483;28;20194;-56
2023/08/18 21:38:49;;;;;;;5.75;4.88;;;23.10;74.80;;;;;;4992479;28;20249;-55
2023/08/18 21:41:17;;;;;;;5.88;4.60;;;23.10;74.80;;;;;;4992364;28;20194;-56
2023/08/18 21:43:55;;;;;;;;;;;;;;;;;;;;;
2023/08/18 21:47:05;;;;;;;5.57;4.45;;;23.10;74.80;;;;;;4943868;28;20201;-55
2023/08/18 21:49:32;;;;;;;6.40;3.95;;;23.10;74.80;;;;;;4869925;29;20231;-57
2023/08/18 21:52:04;;;;;;;4.57;4.13;;;23.10;74.80;;;;;;4877913;29;20202;-58
2023/08/18 21:54:32;;;;;;;5.43;4.82;;;23.10;74.80;;;;;;4877793;29;20226;-57
2023/08/18 22:00:07;;;;;;;;;;;;;;;;;;;;;
2023/08/18 22:32:17;;;;;;;5.07;3.88;;;22.90;74.50;;;;;;4854440;29;20616;-53
2023/08/18 22:57:58;;;;;;;3.60;3.10;;;22.90;74.30;;;;;;4950262;29;20314;-55
2023/08/18 23:48:04;;;;;;;2.72;2.53;;;22.80;73.60;;;;;;4877847;29;20560;-61
2023/08/18 23:50:54;;;;;;;3.25;2.70;;;22.80;73.60;;;;;;4875400;29;20322;-61
